createdAt,value
2023-02-24T00:00:30.998Z,7.44
2023-02-24T00:03:18.703Z,7.46
2023-02-24T00:06:12.044Z,7.50
2023-02-24T00:09:00.935Z,7.46
2023-02-24T00:11:54.086Z,7.48
2023-02-24T00:14:44.296Z,7.49
2023-02-24T00:17:32.001Z,7.49
2023-02-24T00:20:20.026Z,7.51
2023-02-24T00:23:09.839Z,7.53
2023-02-24T00:26:01.800Z,7.53
2023-02-24T00:28:49.692Z,7.54
2023-02-24T00:31:39.739Z,7.54
2023-02-24T00:34:27.907Z,7.57
2023-02-24T00:37:16.275Z,7.55
2023-02-24T00:40:11.255Z,7.55
2023-02-24T00:43:00.495Z,7.56
2023-02-24T00:45:51.597Z,7.57
2023-02-24T00:48:41.643Z,7.60
2023-02-24T00:51:29.487Z,7.57
2023-02-24T00:54:18.857Z,7.57
2023-02-24T00:57:08.275Z,7.56
2023-02-24T00:59:58.842Z,7.55
2023-02-24T01:02:47.861Z,7.55
2023-02-24T01:05:38.326Z,7.55
2023-02-24T01:08:26.433Z,7.54
2023-02-24T01:11:32.139Z,7.54
2023-02-24T01:14:25.981Z,7.50
2023-02-24T01:17:16.369Z,7.51
2023-02-24T01:20:15.914Z,7.49
2023-02-24T01:23:03.807Z,7.51
2023-02-24T01:25:51.647Z,7.51
2023-02-24T01:28:39.371Z,7.49
2023-02-24T01:31:28.815Z,7.48
2023-02-24T01:34:18.644Z,7.47
2023-02-24T01:37:06.976Z,7.48
2023-02-24T01:39:54.650Z,7.49
2023-02-24T01:42:43.460Z,7.49
2023-02-24T01:45:36.732Z,7.49
2023-02-24T01:48:25.071Z,7.50
2023-02-24T01:51:13.852Z,7.48
2023-02-24T01:54:03.546Z,7.49
2023-02-24T01:56:53.493Z,7.49
2023-02-24T01:59:41.492Z,7.49
2023-02-24T02:02:30.438Z,7.48
2023-02-24T02:05:18.543Z,7.50
2023-02-24T02:08:10.185Z,7.47
2023-02-24T02:11:06.060Z,7.48
2023-02-24T02:13:56.861Z,7.49
2023-02-24T02:17:00.033Z,7.45
2023-02-24T02:20:15.453Z,7.44
2023-02-24T02:23:43.499Z,7.42
2023-02-24T02:27:19.874Z,7.40
2023-02-24T02:31:01.991Z,7.43
2023-02-24T02:34:21.050Z,7.41
2023-02-24T02:37:16.100Z,7.41
2023-02-24T02:40:20.135Z,7.40
2023-02-24T02:43:19.839Z,7.40
2023-02-24T02:46:17.561Z,7.39
2023-02-24T02:49:19.553Z,7.36
2023-02-24T02:52:15.412Z,7.35
2023-02-24T02:55:14.759Z,7.34
2023-02-24T02:58:05.604Z,7.33
2023-02-24T03:01:02.583Z,7.31
2023-02-24T03:03:56.003Z,7.30
2023-02-24T03:06:48.840Z,7.29
2023-02-24T03:09:43.636Z,7.28
2023-02-24T03:12:34.360Z,7.27
2023-02-24T03:15:27.115Z,7.26
2023-02-24T03:18:21.087Z,7.26
2023-02-24T03:21:14.920Z,7.25
2023-02-24T03:24:06.687Z,7.24
2023-02-24T03:27:07.116Z,7.22
2023-02-24T03:30:01.644Z,7.23
2023-02-24T03:32:57.770Z,7.21
2023-02-24T03:35:45.924Z,7.21
2023-02-24T03:38:36.842Z,7.20
2023-02-24T03:41:30.450Z,7.20
2023-02-24T03:44:18.330Z,7.18
2023-02-24T03:47:06.472Z,7.16
2023-02-24T03:49:54.496Z,7.15
2023-02-24T03:52:51.642Z,7.15
2023-02-24T03:55:58.780Z,7.14
2023-02-24T03:59:13.047Z,7.13
2023-02-24T04:02:15.301Z,7.11
2023-02-24T04:05:16.044Z,7.10
2023-02-24T04:08:08.454Z,7.07
2023-02-24T04:11:05.696Z,7.06
2023-02-24T04:14:06.543Z,7.06
2023-02-24T04:17:03.179Z,7.03
2023-02-24T04:19:58.020Z,7.03
2023-02-24T04:22:50.412Z,7.02
2023-02-24T04:25:40.856Z,7.01
2023-02-24T04:28:30.908Z,7.00
2023-02-24T04:31:22.749Z,6.99
2023-02-24T04:34:11.115Z,6.98
2023-02-24T04:36:59.418Z,6.95
2023-02-24T04:39:47.466Z,6.96
2023-02-24T04:42:35.204Z,6.94
2023-02-24T04:45:27.419Z,6.93
2023-02-24T04:48:16.758Z,6.92
2023-02-24T04:51:06.740Z,6.90
2023-02-24T04:53:55.616Z,6.89
2023-02-24T04:56:45.035Z,6.87
2023-02-24T04:59:32.837Z,6.84
2023-02-24T05:02:21.116Z,6.82
2023-02-24T05:05:11.382Z,6.78
2023-02-24T05:08:03.399Z,6.76
2023-02-24T05:10:52.479Z,6.76
2023-02-24T05:13:40.527Z,6.72
2023-02-24T05:16:29.133Z,6.73
2023-02-24T05:19:37.171Z,6.69
2023-02-24T05:22:26.238Z,6.67
2023-02-24T05:25:14.488Z,6.65
2023-02-24T05:28:04.070Z,6.64
2023-02-24T05:30:53.804Z,6.62
2023-02-24T05:33:44.996Z,6.60
2023-02-24T05:36:36.593Z,6.57
2023-02-24T05:39:27.953Z,6.55
2023-02-24T05:42:17.130Z,6.55
2023-02-24T05:45:05.699Z,6.53
2023-02-24T05:47:57.602Z,6.51
2023-02-24T05:50:55.114Z,6.51
2023-02-24T05:53:42.858Z,6.49
2023-02-24T05:56:33.963Z,6.48
2023-02-24T05:59:22.375Z,6.48
2023-02-24T06:02:13.779Z,6.46
2023-02-24T06:05:04.403Z,6.47
2023-02-24T06:07:52.340Z,6.46
2023-02-24T06:10:41.564Z,6.46
2023-02-24T06:13:30.579Z,6.44
2023-02-24T06:16:19.869Z,6.43
2023-02-24T06:19:09.938Z,6.42
2023-02-24T06:21:57.791Z,6.39
2023-02-24T06:24:45.802Z,6.39
2023-02-24T06:27:36.623Z,6.36
2023-02-24T06:30:27.313Z,6.34
2023-02-24T06:33:14.941Z,6.30
2023-02-24T06:36:06.044Z,6.30
2023-02-24T06:38:55.512Z,6.28
2023-02-24T06:41:45.726Z,6.27
2023-02-24T06:44:34.915Z,6.25
2023-02-24T06:47:23.768Z,6.25
2023-02-24T06:50:13.189Z,6.26
2023-02-24T06:53:01.710Z,6.28
2023-02-24T06:55:49.959Z,6.28
2023-02-24T06:58:39.183Z,6.29
2023-02-24T07:01:29.286Z,6.34
2023-02-24T07:04:19.513Z,6.41
2023-02-24T07:07:07.461Z,6.35
2023-02-24T07:09:54.975Z,6.35
2023-02-24T07:12:42.660Z,6.35
2023-02-24T07:15:32.064Z,6.38
2023-02-24T07:18:20.209Z,6.41
2023-02-24T07:21:11.647Z,6.45
2023-02-24T07:23:59.630Z,6.49
2023-02-24T07:26:51.796Z,6.53
2023-02-24T07:29:40.300Z,6.63
2023-02-24T07:32:28.131Z,6.56
2023-02-24T07:35:16.122Z,6.59
2023-02-24T07:38:05.853Z,6.61
2023-02-24T07:40:58.982Z,6.64
2023-02-24T07:43:47.185Z,6.76
2023-02-24T07:46:35.139Z,6.72
2023-02-24T07:49:26.058Z,6.77
2023-02-24T07:52:13.707Z,6.80
2023-02-24T07:55:02.980Z,6.82
2023-02-24T07:57:51.764Z,6.84
2023-02-24T08:00:59.415Z,6.89
2023-02-24T08:03:47.381Z,6.95
2023-02-24T08:06:38.751Z,6.95
2023-02-24T08:09:47.313Z,6.99
2023-02-24T08:12:36.732Z,7.10
2023-02-24T08:15:33.928Z,7.07
2023-02-24T08:18:21.949Z,7.10
2023-02-24T08:21:09.654Z,7.14
2023-02-24T08:23:57.300Z,7.20
2023-02-24T08:26:48.407Z,7.20
2023-02-24T08:29:57.905Z,7.24
2023-02-24T08:32:46.952Z,7.27
2023-02-24T08:35:39.345Z,7.30
2023-02-24T08:38:28.510Z,7.32
2023-02-24T08:41:21.183Z,7.35
2023-02-24T08:44:10.282Z,7.39
2023-02-24T08:47:00.743Z,7.43
2023-02-24T08:49:49.778Z,7.48
2023-02-24T08:52:39.142Z,7.53
2023-02-24T08:55:30.331Z,7.57
2023-02-24T08:58:18.472Z,7.60
2023-02-24T09:01:06.227Z,7.64
2023-02-24T09:03:59.764Z,7.69
2023-02-24T09:10:01.937Z,7.76
2023-02-24T09:12:49.636Z,7.81
2023-02-24T09:15:41.472Z,7.84
2023-02-24T09:18:38.394Z,7.86
2023-02-24T09:21:44.186Z,7.89
2023-02-24T09:24:34.018Z,7.93
2023-02-24T09:27:29.194Z,7.94
2023-02-24T09:30:35.902Z,7.98
2023-02-24T09:33:27.571Z,8.04
2023-02-24T09:36:21.178Z,8.09
2023-02-24T09:39:14.807Z,8.14
2023-02-24T09:42:29.158Z,8.19
2023-02-24T09:45:33.106Z,8.25
2023-02-24T09:48:43.634Z,8.30
2023-02-24T09:51:42.255Z,8.34
2023-02-24T09:54:36.625Z,8.42
2023-02-24T09:57:37.327Z,8.46
2023-02-24T10:00:33.606Z,8.53
2023-02-24T10:03:42.311Z,8.58
2023-02-24T10:06:35.384Z,8.64
2023-02-24T10:09:29.574Z,8.71
2023-02-24T10:12:27.186Z,8.75
2023-02-24T10:15:42.280Z,8.87
2023-02-24T10:18:34.847Z,8.97
2023-02-24T10:21:35.017Z,9.04
2023-02-24T10:24:34.306Z,9.14
2023-02-24T10:27:33.954Z,9.27
2023-02-24T10:30:41.904Z,9.41
2023-02-24T10:33:38.929Z,9.53
2023-02-24T10:36:35.367Z,9.66
2023-02-24T10:39:26.404Z,9.79
2023-02-24T10:42:31.630Z,9.91
2023-02-24T10:45:34.845Z,10.06
2023-02-24T10:48:40.536Z,10.13
2023-02-24T10:51:37.125Z,10.19
2023-02-24T10:54:45.035Z,10.29
2023-02-24T10:57:44.781Z,10.43
2023-02-24T11:01:12.454Z,10.51
2023-02-24T11:04:22.576Z,10.40
2023-02-24T11:07:24.611Z,10.50
2023-02-24T11:10:25.795Z,10.56
2023-02-24T11:13:41.145Z,10.53
2023-02-24T11:16:51.203Z,10.63
2023-02-24T11:19:50.083Z,10.73
2023-02-24T11:22:43.473Z,10.79
2023-02-24T11:25:39.729Z,10.79
2023-02-24T11:28:56.983Z,10.78
2023-02-24T11:32:06.624Z,10.83
2023-02-24T11:35:05.763Z,10.84
2023-02-24T11:38:09.708Z,10.82
2023-02-24T11:41:09.436Z,10.82
2023-02-24T11:44:12.099Z,10.84
2023-02-24T11:47:07.416Z,10.99
2023-02-24T11:50:05.471Z,11.00
2023-02-24T11:52:56.886Z,11.13
2023-02-24T11:55:48.821Z,11.15
2023-02-24T11:58:44.307Z,11.20
2023-02-24T12:01:45.544Z,11.21
2023-02-24T12:04:43.874Z,11.27
2023-02-24T12:07:39.003Z,11.33
2023-02-24T12:10:33.257Z,11.38
2023-02-24T12:13:32.255Z,11.44
2023-02-24T12:16:26.916Z,11.45
2023-02-24T12:19:21.584Z,11.43
2023-02-24T12:22:16.553Z,11.44
2023-02-24T12:25:05.110Z,11.48
2023-02-24T12:28:10.867Z,11.47
2023-02-24T12:31:14.423Z,11.54
2023-02-24T12:34:11.948Z,11.50
2023-02-24T12:37:30.252Z,11.47
2023-02-24T12:40:35.270Z,11.50
2023-02-24T12:43:37.030Z,11.53
2023-02-24T12:46:30.046Z,11.46
2023-02-24T12:49:48.152Z,11.34
2023-02-24T12:52:53.674Z,11.25
2023-02-24T12:55:56.472Z,11.19
2023-02-24T12:58:49.452Z,11.15
2023-02-24T13:01:41.972Z,11.14
2023-02-24T13:04:43.937Z,11.12
2023-02-24T13:07:58.600Z,11.04
2023-02-24T13:11:01.675Z,10.99
2023-02-24T13:14:01.218Z,11.07
2023-02-24T13:16:49.088Z,11.01
2023-02-24T13:19:37.842Z,11.08
2023-02-24T13:22:33.256Z,11.11
2023-02-24T13:25:28.535Z,11.02
2023-02-24T13:28:27.899Z,11.16
2023-02-24T13:31:15.652Z,11.23
2023-02-24T13:34:30.547Z,11.28
2023-02-24T13:37:34.412Z,11.28
2023-02-24T13:40:28.202Z,11.29
2023-02-24T13:43:26.572Z,11.37
2023-02-24T13:46:20.630Z,11.37
2023-02-24T13:49:32.713Z,11.35
2023-02-24T13:52:42.532Z,11.34
2023-02-24T13:55:51.491Z,11.30
2023-02-24T13:58:56.785Z,11.16
2023-02-24T14:01:51.622Z,11.20
2023-02-24T14:04:49.516Z,11.18
2023-02-24T14:07:40.869Z,11.14
2023-02-24T14:10:34.695Z,11.12
2023-02-24T14:13:27.944Z,11.12
2023-02-24T14:16:21.589Z,11.07
2023-02-24T14:19:17.162Z,10.98
2023-02-24T14:22:04.693Z,11.02
2023-02-24T14:25:03.394Z,11.04
2023-02-24T14:27:54.913Z,10.98
2023-02-24T14:30:43.265Z,10.99
2023-02-24T14:33:35.696Z,11.01
2023-02-24T14:36:27.470Z,10.97
2023-02-24T14:39:19.325Z,10.93
2023-02-24T14:42:15.866Z,10.93
2023-02-24T14:45:20.051Z,10.75
2023-02-24T14:48:07.628Z,10.75
2023-02-24T14:51:02.731Z,10.73
2023-02-24T14:53:55.169Z,10.66
2023-02-24T14:56:43.072Z,10.68
2023-02-24T14:59:36.791Z,10.72
2023-02-24T15:02:32.124Z,10.72
2023-02-24T15:05:20.043Z,10.69
2023-02-24T15:08:27.530Z,10.65
2023-02-24T15:11:27.207Z,10.58
2023-02-24T15:14:25.169Z,10.53
2023-02-24T15:17:19.251Z,10.49
2023-02-24T15:20:35.095Z,10.44
2023-02-24T15:23:37.317Z,10.42
2023-02-24T15:26:31.861Z,10.40
2023-02-24T15:29:27.063Z,10.35
2023-02-24T15:32:20.098Z,10.32
2023-02-24T15:35:09.118Z,10.26
2023-02-24T15:37:58.579Z,10.23
2023-02-24T15:40:54.325Z,10.18
2023-02-24T15:43:50.274Z,10.11
2023-02-24T15:46:38.902Z,10.10
2023-02-24T15:49:27.074Z,10.05
2023-02-24T15:52:15.183Z,9.99
2023-02-24T15:55:05.326Z,9.93
2023-02-24T15:58:00.379Z,9.87
2023-02-24T16:00:53.206Z,9.85
2023-02-24T16:03:41.843Z,9.79
2023-02-24T16:06:30.643Z,9.74
2023-02-24T16:09:24.854Z,9.65
2023-02-24T16:12:21.752Z,9.61
2023-02-24T16:15:18.968Z,9.57
2023-02-24T16:18:20.244Z,9.53
2023-02-24T16:21:09.760Z,9.49
2023-02-24T16:23:57.596Z,9.43
2023-02-24T16:26:45.145Z,9.36
2023-02-24T16:29:34.139Z,9.28
2023-02-24T16:32:23.784Z,9.24
2023-02-24T16:35:15.918Z,9.19
2023-02-24T16:38:04.605Z,9.14
2023-02-24T16:40:52.290Z,9.08
2023-02-24T16:43:40.262Z,9.01
2023-02-24T16:46:37.601Z,8.89
2023-02-24T16:49:25.641Z,8.77
2023-02-24T16:52:14.581Z,8.69
2023-02-24T16:55:03.170Z,8.62
2023-02-24T16:57:51.022Z,8.60
2023-02-24T17:00:40.362Z,8.56
2023-02-24T17:03:42.014Z,8.50
2023-02-24T17:06:29.766Z,8.45
2023-02-24T17:09:18.546Z,8.42
2023-02-24T17:12:07.421Z,8.39
2023-02-24T17:14:55.055Z,8.34
2023-02-24T17:17:44.186Z,8.28
2023-02-24T17:20:33.722Z,8.24
2023-02-24T17:23:22.340Z,8.20
2023-02-24T17:26:13.644Z,8.13
2023-02-24T17:29:01.354Z,8.05
2023-02-24T17:31:49.102Z,8.03
2023-02-24T17:34:37.001Z,7.96
2023-02-24T17:37:26.723Z,7.91
2023-02-24T17:40:16.130Z,7.85
2023-02-24T17:43:03.667Z,7.81
2023-02-24T17:45:52.990Z,7.77
2023-02-24T17:48:40.800Z,7.70
2023-02-24T17:51:29.735Z,7.63
2023-02-24T17:54:19.033Z,7.59
2023-02-24T17:57:08.275Z,7.57
2023-02-24T17:59:57.906Z,7.51
2023-02-24T18:02:48.662Z,7.50
2023-02-24T18:05:37.466Z,7.46
2023-02-24T18:08:26.127Z,7.41
2023-02-24T18:11:21.123Z,7.37
2023-02-24T18:14:09.781Z,7.32
2023-02-24T18:16:57.607Z,7.32
2023-02-24T18:19:45.242Z,7.27
2023-02-24T18:22:33.088Z,7.24
2023-02-24T18:25:21.874Z,7.22
2023-02-24T18:28:11.739Z,7.21
2023-02-24T18:31:03.537Z,7.15
2023-02-24T18:33:52.778Z,7.11
2023-02-24T18:36:40.876Z,7.09
2023-02-24T18:39:29.753Z,7.07
2023-02-24T18:42:18.678Z,7.07
2023-02-24T18:45:09.892Z,7.01
2023-02-24T18:48:02.000Z,6.99
2023-02-24T18:50:53.499Z,6.98
2023-02-24T18:53:43.262Z,6.95
2023-02-24T18:56:35.762Z,6.88
2023-02-24T18:59:23.805Z,6.79
2023-02-24T19:02:14.076Z,6.75
2023-02-24T19:05:04.162Z,6.76
2023-02-24T19:07:56.484Z,6.71
2023-02-24T19:10:45.687Z,6.72
2023-02-24T19:13:34.418Z,6.68
2023-02-24T19:16:24.069Z,6.63
2023-02-24T19:19:17.059Z,6.58
2023-02-24T19:22:04.964Z,6.56
2023-02-24T19:24:53.791Z,6.49
2023-02-24T19:27:42.606Z,6.36
2023-02-24T19:30:32.635Z,6.31
2023-02-24T19:33:24.205Z,6.24
2023-02-24T19:36:14.765Z,6.20
2023-02-24T19:39:03.965Z,6.05
2023-02-24T19:41:53.443Z,5.94
2023-02-24T19:44:42.125Z,5.91
2023-02-24T19:47:31.002Z,5.90
2023-02-24T19:50:19.479Z,5.75
2023-02-24T19:53:10.281Z,5.67
2023-02-24T19:55:58.713Z,5.63
2023-02-24T19:58:49.477Z,5.50
2023-02-24T20:01:38.592Z,5.47
2023-02-24T20:04:28.551Z,5.43
2023-02-24T20:07:17.473Z,5.32
2023-02-24T20:10:10.566Z,5.24
2023-02-24T20:13:00.526Z,5.18
2023-02-24T20:15:50.689Z,5.12
2023-02-24T20:18:39.902Z,5.04
2023-02-24T20:21:28.025Z,4.98
2023-02-24T20:24:20.215Z,4.98
2023-02-24T20:27:10.363Z,4.90
2023-02-24T20:30:00.546Z,4.91
2023-02-24T20:32:53.447Z,4.86
2023-02-24T20:35:41.381Z,4.85
2023-02-24T20:38:29.721Z,4.71
2023-02-24T20:41:19.263Z,4.68
2023-02-24T20:44:09.021Z,4.63
2023-02-24T20:46:56.558Z,4.61
2023-02-24T20:49:44.118Z,4.60
2023-02-24T20:52:33.779Z,4.56
2023-02-24T20:55:22.170Z,4.53
2023-02-24T20:58:09.888Z,4.53
2023-02-24T21:00:58.974Z,4.45
2023-02-24T21:03:47.759Z,4.44
2023-02-24T21:06:36.890Z,4.37
2023-02-24T21:09:24.768Z,4.35
2023-02-24T21:12:12.219Z,4.28
2023-02-24T21:14:59.727Z,4.32
2023-02-24T21:17:48.650Z,4.26
2023-02-24T21:20:38.785Z,4.24
2023-02-24T21:23:26.846Z,4.11
2023-02-24T21:26:14.951Z,4.10
2023-02-24T21:29:02.699Z,4.17
2023-02-24T21:31:50.868Z,4.18
2023-02-24T21:34:39.672Z,4.16
2023-02-24T21:37:27.672Z,4.08
2023-02-24T21:40:17.639Z,4.07
2023-02-24T21:43:06.020Z,4.05
2023-02-24T21:45:53.839Z,4.00
2023-02-24T21:48:42.017Z,3.99
2023-02-24T21:51:31.544Z,3.98
2023-02-24T21:54:19.802Z,3.92
2023-02-24T21:57:08.407Z,3.92
2023-02-24T21:59:56.853Z,3.93
2023-02-24T22:02:44.418Z,3.89
2023-02-24T22:05:32.137Z,3.90
2023-02-24T22:08:21.126Z,3.81
2023-02-24T22:11:08.968Z,3.83
2023-02-24T22:13:56.554Z,3.83
2023-02-24T22:16:44.813Z,3.76
2023-02-24T22:19:32.576Z,3.75
2023-02-24T22:22:20.344Z,3.75
2023-02-24T22:25:11.842Z,3.72
2023-02-24T22:27:59.544Z,3.63
2023-02-24T22:30:47.505Z,3.64
2023-02-24T22:33:38.540Z,3.68
2023-02-24T22:36:29.975Z,3.69
2023-02-24T22:39:17.625Z,3.68
2023-02-24T22:42:07.617Z,3.64
2023-02-24T22:44:55.361Z,3.64
2023-02-24T22:47:42.960Z,3.58
2023-02-24T22:50:30.568Z,3.56
2023-02-24T22:53:18.085Z,3.49
2023-02-24T22:56:06.481Z,3.51
2023-02-24T22:58:56.102Z,3.52
2023-02-24T23:01:44.215Z,3.48
2023-02-24T23:04:32.022Z,3.48
2023-02-24T23:07:19.616Z,3.52
2023-02-24T23:10:08.229Z,3.52
2023-02-24T23:12:55.897Z,3.52
2023-02-24T23:15:45.582Z,3.52
2023-02-24T23:18:34.612Z,3.52
2023-02-24T23:21:26.455Z,3.50
2023-02-24T23:24:16.359Z,3.51
2023-02-24T23:27:04.265Z,3.54
2023-02-24T23:29:51.750Z,3.56
2023-02-24T23:32:43.789Z,3.60
2023-02-24T23:35:31.781Z,3.59
2023-02-24T23:38:19.301Z,3.61
2023-02-24T23:41:10.458Z,3.60
2023-02-24T23:43:58.035Z,3.59
2023-02-24T23:46:45.664Z,3.60
2023-02-24T23:49:47.495Z,3.61
2023-02-24T23:52:35.955Z,3.61
2023-02-24T23:55:23.407Z,3.63
2023-02-24T23:58:10.945Z,3.62
